sensor_id;sensor_type;location;lat;lon;timestamp;pressure;altitude;pressure_sealevel;temperature;humidity
9738;BME280;4908;47.446;13.900;2024-03-23T00:55:17;92404.91;;;5.60;100.00
9738;BME280;4908;47.446;13.900;2024-03-23T00:57:43;92398.97;;;5.70;100.00
9738;BME280;4908;47.446;13.900;2024-03-23T01:00:11;92399.59;;;5.60;100.00
9738;BME280;4908;47.446;13.900;2024-03-23T01:02:37;92400.25;;;5.79;100.00
9738;BME280;4908;47.446;13.900;2024-03-23T01:05:04;92394.19;;;5.79;100.00
9738;BME280;4908;47.446;13.900;2024-03-23T01:07:30;92386.91;;;5.76;100.00
9738;BME280;4908;47.446;13.900;2024-03-23T01:09:58;92400.19;;;5.76;100.00
9738;BME280;4908;47.446;13.900;2024-03-23T01:12:24;92390.75;;;5.78;100.00
9738;BME280;4908;47.446;13.900;2024-03-23T01:14:52;92385.03;;;5.76;100.00
9738;BME280;4908;47.446;13.900;2024-03-23T01:17:18;92384.69;;;5.81;100.00
9738;BME280;4908;47.446;13.900;2024-03-23T01:19:45;92396.09;;;5.82;100.00
9738;BME280;4908;47.446;13.900;2024-03-23T01:22:11;92392.00;;;5.84;100.00
9738;BME280;4908;47.446;13.900;2024-03-23T01:24:38;92392.25;;;5.79;100.00
9738;BME280;4908;47.446;13.900;2024-03-23T01:27:06;92388.78;;;5.75;100.00
9738;BME280;4908;47.446;13.900;2024-03-23T01:29:33;92390.00;;;5.81;100.00
9738;BME280;4908;47.446;13.900;2024-03-23T01:31:59;92388.50;;;5.80;100.00
9738;BME280;4908;47.446;13.900;2024-03-23T01:34:26;92391.25;;;5.87;100.00
9738;BME280;4908;47.446;13.900;2024-03-23T01:36:53;92385.66;;;5.92;100.00
9738;BME280;4908;47.446;13.900;2024-03-23T01:39:20;92384.84;;;5.88;100.00
9738;BME280;4908;47.446;13.900;2024-03-23T01:41:46;92389.41;;;5.91;100.00
9738;BME280;4908;47.446;13.900;2024-03-23T01:44:15;92385.06;;;5.80;100.00
9738;BME280;4908;47.446;13.900;2024-03-23T01:46:41;92388.50;;;5.80;100.00
9738;BME280;4908;47.446;13.900;2024-03-23T01:49:09;92388.50;;;5.80;100.00
9738;BME280;4908;47.446;13.900;2024-03-23T01:51:35;92379.34;;;5.78;100.00
9738;BME280;4908;47.446;13.900;2024-03-23T01:54:04;92371.31;;;5.71;100.00
9738;BME280;4908;47.446;13.900;2024-03-23T01:56:32;92368.28;;;5.46;100.00
9738;BME280;4908;47.446;13.900;2024-03-23T01:59:00;92369.94;;;5.54;100.00
9738;BME280;4908;47.446;13.900;2024-03-23T02:01:28;92370.75;;;5.58;100.00
9738;BME280;4908;47.446;13.900;2024-03-23T02:03:55;92370.38;;;5.30;100.00
9738;BME280;4908;47.446;13.900;2024-03-23T02:06:22;92381.16;;;5.44;100.00
9738;BME280;4908;47.446;13.900;2024-03-23T02:08:49;92368.28;;;5.46;100.00
9738;BME280;4908;47.446;13.900;2024-03-23T02:11:15;92369.53;;;5.52;100.00
9738;BME280;4908;47.446;13.900;2024-03-23T02:13:42;92374.66;;;5.38;100.00
9738;BME280;4908;47.446;13.900;2024-03-23T02:16:08;92368.22;;;5.39;100.00
9738;BME280;4908;47.446;13.900;2024-03-23T02:18:37;92363.91;;;5.57;100.00
9738;BME280;4908;47.446;13.900;2024-03-23T02:21:04;92373.19;;;5.70;100.00
9738;BME280;4908;47.446;13.900;2024-03-23T02:23:32;92365.72;;;5.50;100.00
9738;BME280;4908;47.446;13.900;2024-03-23T02:25:58;92364.91;;;5.45;100.00
9738;BME280;4908;47.446;13.900;2024-03-23T02:28:26;92356.66;;;5.54;100.00
9738;BME280;4908;47.446;13.900;2024-03-23T02:30:52;92356.03;;;5.64;100.00
9738;BME280;4908;47.446;13.900;2024-03-23T02:33:19;92354.00;;;5.54;100.00
9738;BME280;4908;47.446;13.900;2024-03-23T02:35:45;92351.69;;;5.53;100.00
9738;BME280;4908;47.446;13.900;2024-03-23T02:38:13;92351.66;;;5.49;100.00
9738;BME280;4908;47.446;13.900;2024-03-23T02:40:40;92349.72;;;5.46;100.00
9738;BME280;4908;47.446;13.900;2024-03-23T02:43:07;92350.13;;;5.48;100.00
9738;BME280;4908;47.446;13.900;2024-03-23T02:45:33;92347.97;;;5.57;100.00
9738;BME280;4908;47.446;13.900;2024-03-23T02:48:01;92342.13;;;5.74;100.00
9738;BME280;4908;47.446;13.900;2024-03-23T02:50:27;92341.56;;;5.62;100.00
9738;BME280;4908;47.446;13.900;2024-03-23T02:52:54;92341.13;;;5.56;100.00
9738;BME280;4908;47.446;13.900;2024-03-23T02:55:20;92341.50;;;5.55;100.00
9738;BME280;4908;47.446;13.900;2024-03-23T02:57:49;92344.50;;;5.53;100.00
9738;BME280;4908;47.446;13.900;2024-03-23T03:00:15;92336.09;;;5.47;100.00
9738;BME280;4908;47.446;13.900;2024-03-23T03:02:42;92337.56;;;5.45;100.00
9738;BME280;4908;47.446;13.900;2024-03-23T03:05:08;92339.41;;;5.41;100.00
9738;BME280;4908;47.446;13.900;2024-03-23T03:07:36;92336.34;;;5.39;100.00
9738;BME280;4908;47.446;13.900;2024-03-23T03:10:05;92343.09;;;5.33;100.00
9738;BME280;4908;47.446;13.900;2024-03-23T03:12:34;92337.00;;;5.32;100.00
9738;BME280;4908;47.446;13.900;2024-03-23T03:15:03;92333.44;;;5.47;100.00
9738;BME280;4908;47.446;13.900;2024-03-23T03:17:30;92326.81;;;5.34;100.00
9738;BME280;4908;47.446;13.900;2024-03-23T03:19:57;92331.06;;;5.13;100.00
9738;BME280;4908;47.446;13.900;2024-03-23T03:22:23;92331.59;;;4.73;100.00
9738;BME280;4908;47.446;13.900;2024-03-23T03:24:50;92329.19;;;4.65;100.00
9738;BME280;4908;47.446;13.900;2024-03-23T03:27:17;92326.38;;;4.80;100.00
9738;BME280;4908;47.446;13.900;2024-03-23T03:29:44;92321.25;;;4.91;100.00
9738;BME280;4908;47.446;13.900;2024-03-23T03:32:11;92326.22;;;5.18;100.00
9738;BME280;4908;47.446;13.900;2024-03-23T03:34:38;92316.91;;;5.05;100.00
9738;BME280;4908;47.446;13.900;2024-03-23T03:37:05;92320.66;;;5.01;100.00
9738;BME280;4908;47.446;13.900;2024-03-23T03:39:32;92311.41;;;4.91;100.00
9738;BME280;4908;47.446;13.900;2024-03-23T03:41:58;92323.00;;;4.80;100.00
9738;BME280;4908;47.446;13.900;2024-03-23T03:44:26;92311.06;;;4.93;100.00
9738;BME280;4908;47.446;13.900;2024-03-23T03:46:52;92309.00;;;4.83;100.00
9738;BME280;4908;47.446;13.900;2024-03-23T03:49:21;92299.72;;;4.70;100.00
9738;BME280;4908;47.446;13.900;2024-03-23T03:51:47;92302.25;;;4.63;100.00
9738;BME280;4908;47.446;13.900;2024-03-23T03:54:14;92298.00;;;4.81;100.00
9738;BME280;4908;47.446;13.900;2024-03-23T03:56:40;92301.78;;;4.80;100.00
9738;BME280;4908;47.446;13.900;2024-03-23T03:59:07;92294.00;;;4.68;100.00
9738;BME280;4908;47.446;13.900;2024-03-23T04:01:33;92290.75;;;4.78;100.00
9738;BME280;4908;47.446;13.900;2024-03-23T04:04:01;92299.53;;;4.59;100.00
9738;BME280;4908;47.446;13.900;2024-03-23T04:06:29;92292.59;;;4.28;100.00
9738;BME280;4908;47.446;13.900;2024-03-23T04:08:56;92295.97;;;4.25;100.00
9738;BME280;4908;47.446;13.900;2024-03-23T04:11:22;92292.19;;;4.26;100.00
9738;BME280;4908;47.446;13.900;2024-03-23T04:13:49;92290.19;;;4.42;100.00
9738;BME280;4908;47.446;13.900;2024-03-23T04:16:24;92293.25;;;4.44;100.00
9738;BME280;4908;47.446;13.900;2024-03-23T04:18:52;92282.69;;;4.71;100.00
9738;BME280;4908;47.446;13.900;2024-03-23T04:21:18;92280.88;;;4.78;100.00
9738;BME280;4908;47.446;13.900;2024-03-23T04:23:47;92272.44;;;4.69;100.00
9738;BME280;4908;47.446;13.900;2024-03-23T04:26:13;92272.34;;;4.62;100.00
9738;BME280;4908;47.446;13.900;2024-03-23T04:28:40;92267.72;;;4.82;100.00
9738;BME280;4908;47.446;13.900;2024-03-23T04:31:07;92265.09;;;4.36;100.00
9738;BME280;4908;47.446;13.900;2024-03-23T04:33:34;92265.38;;;4.31;100.00
9738;BME280;4908;47.446;13.900;2024-03-23T04:36:00;92265.53;;;4.38;100.00
9738;BME280;4908;47.446;13.900;2024-03-23T04:38:28;92254.63;;;4.43;100.00
9738;BME280;4908;47.446;13.900;2024-03-23T04:40:57;92254.94;;;4.65;100.00
9738;BME280;4908;47.446;13.900;2024-03-23T04:43:25;92255.56;;;4.54;100.00
9738;BME280;4908;47.446;13.900;2024-03-23T04:45:52;92259.31;;;4.53;100.00
9738;BME280;4908;47.446;13.900;2024-03-23T04:48:21;92257.94;;;4.37;100.00
9738;BME280;4908;47.446;13.900;2024-03-23T04:50:48;92257.34;;;4.24;100.00
9738;BME280;4908;47.446;13.900;2024-03-23T04:53:16;92253.59;;;4.25;100.00
9738;BME280;4908;47.446;13.900;2024-03-23T04:55:43;92248.38;;;4.32;100.00
9738;BME280;4908;47.446;13.900;2024-03-23T04:58:12;92256.56;;;4.24;100.00
9738;BME280;4908;47.446;13.900;2024-03-23T05:00:38;92252.09;;;4.28;100.00
9738;BME280;4908;47.446;13.900;2024-03-23T05:03:05;92244.56;;;4.30;100.00
9738;BME280;4908;47.446;13.900;2024-03-23T05:05:32;92236.84;;;4.21;100.00
9738;BME280;4908;47.446;13.900;2024-03-23T05:07:59;92237.50;;;4.15;100.00
9738;BME280;4908;47.446;13.900;2024-03-23T05:10:25;92237.13;;;4.16;100.00
9738;BME280;4908;47.446;13.900;2024-03-23T05:12:53;92230.16;;;4.27;100.00
9738;BME280;4908;47.446;13.900;2024-03-23T05:15:20;92224.84;;;4.27;100.00
9738;BME280;4908;47.446;13.900;2024-03-23T05:17:47;92226.53;;;4.16;100.00
9738;BME280;4908;47.446;13.900;2024-03-23T05:20:13;92237.84;;;4.13;100.00
9738;BME280;4908;47.446;13.900;2024-03-23T05:22:42;92230.84;;;4.02;100.00
9738;BME280;4908;47.446;13.900;2024-03-23T05:25:08;92233.19;;;3.84;100.00
9738;BME280;4908;47.446;13.900;2024-03-23T05:27:35;92228.84;;;3.73;100.00
9738;BME280;4908;47.446;13.900;2024-03-23T05:30:02;92233.31;;;3.91;100.00
9738;BME280;4908;47.446;13.900;2024-03-23T05:32:30;92222.84;;;3.98;100.00
9738;BME280;4908;47.446;13.900;2024-03-23T05:34:56;92222.59;;;3.84;100.00
9738;BME280;4908;47.446;13.900;2024-03-23T05:37:23;92228.53;;;3.78;100.00
9738;BME280;4908;47.446;13.900;2024-03-23T05:39:49;92222.78;;;3.72;100.00
9738;BME280;4908;47.446;13.900;2024-03-23T05:42:16;92230.34;;;3.74;100.00
9738;BME280;4908;47.446;13.900;2024-03-23T05:44:43;92223.97;;;3.75;100.00
9738;BME280;4908;47.446;13.900;2024-03-23T05:47:11;92223.19;;;3.97;100.00
9738;BME280;4908;47.446;13.900;2024-03-23T05:49:39;92217.94;;;3.78;100.00
9738;BME280;4908;47.446;13.900;2024-03-23T05:52:07;92221.25;;;3.52;100.00
9738;BME280;4908;47.446;13.900;2024-03-23T05:54:33;92212.72;;;3.39;100.00
9738;BME280;4908;47.446;13.900;2024-03-23T05:57:01;92215.50;;;3.46;100.00
9738;BME280;4908;47.446;13.900;2024-03-23T05:59:27;92213.63;;;3.47;100.00
9738;BME280;4908;47.446;13.900;2024-03-23T06:01:54;92215.47;;;3.65;100.00
9738;BME280;4908;47.446;13.900;2024-03-23T06:04:20;92217.34;;;3.65;100.00
9738;BME280;4908;47.446;13.900;2024-03-23T06:06:51;92208.00;;;3.71;100.00
9738;BME280;4908;47.446;13.900;2024-03-23T06:09:18;92212.91;;;3.69;100.00
9738;BME280;4908;47.446;13.900;2024-03-23T06:11:45;92204.47;;;3.86;100.00
9738;BME280;4908;47.446;13.900;2024-03-23T06:14:11;92203.06;;;3.92;100.00
9738;BME280;4908;47.446;13.900;2024-03-23T06:16:38;92202.09;;;4.00;100.00
9738;BME280;4908;47.446;13.900;2024-03-23T06:19:04;92198.59;;;3.96;100.00
9738;BME280;4908;47.446;13.900;2024-03-23T06:21:32;92194.19;;;4.04;100.00
9738;BME280;4908;47.446;13.900;2024-03-23T06:23:59;92198.06;;;4.10;100.00
9738;BME280;4908;47.446;13.900;2024-03-23T06:26:26;92200.47;;;4.18;100.00
9738;BME280;4908;47.446;13.900;2024-03-23T06:28:52;92199.88;;;4.28;100.00
9738;BME280;4908;47.446;13.900;2024-03-23T06:31:19;92203.03;;;4.37;100.00
9738;BME280;4908;47.446;13.900;2024-03-23T06:33:45;92201.59;;;4.43;100.00
9738;BME280;4908;47.446;13.900;2024-03-23T06:36:12;92193.78;;;4.50;100.00
9738;BME280;4908;47.446;13.900;2024-03-23T06:38:38;92199.56;;;4.60;100.00
9738;BME280;4908;47.446;13.900;2024-03-23T06:41:07;92191.28;;;4.65;100.00
9738;BME280;4908;47.446;13.900;2024-03-23T06:43:33;92197.81;;;4.71;100.00
9738;BME280;4908;47.446;13.900;2024-03-23T06:46:02;92191.69;;;4.93;100.00
9738;BME280;4908;47.446;13.900;2024-03-23T06:48:29;92194.81;;;5.02;100.00
9738;BME280;4908;47.446;13.900;2024-03-23T06:50:56;92182.38;;;5.06;100.00
9738;BME280;4908;47.446;13.900;2024-03-23T06:53:22;92182.69;;;5.01;100.00
9738;BME280;4908;47.446;13.900;2024-03-23T06:55:53;92175.28;;;5.17;100.00
9738;BME280;4908;47.446;13.900;2024-03-23T06:58:22;92181.53;;;5.31;100.00
9738;BME280;4908;47.446;13.900;2024-03-23T07:00:49;92171.59;;;5.25;100.00
9738;BME280;4908;47.446;13.900;2024-03-23T07:03:16;92164.94;;;5.38;100.00
9738;BME280;4908;47.446;13.900;2024-03-23T07:05:43;92163.16;;;5.49;100.00
9738;BME280;4908;47.446;13.900;2024-03-23T07:08:09;92160.50;;;5.49;100.00
9738;BME280;4908;47.446;13.900;2024-03-23T07:10:39;92162.16;;;5.64;100.00
9738;BME280;4908;47.446;13.900;2024-03-23T07:13:05;92158.56;;;5.83;100.00
9738;BME280;4908;47.446;13.900;2024-03-23T07:15:34;92158.66;;;5.93;100.00
9738;BME280;4908;47.446;13.900;2024-03-23T07:18:00;92144.31;;;6.01;100.00
9738;BME280;4908;47.446;13.900;2024-03-23T07:20:27;92144.41;;;6.15;100.00
9738;BME280;4908;47.446;13.900;2024-03-23T07:22:52;92131.22;;;6.29;100.00
9738;BME280;4908;47.446;13.900;2024-03-23T07:25:19;92125.66;;;6.49;100.00
9738;BME280;4908;47.446;13.900;2024-03-23T07:27:47;92118.13;;;6.65;100.00
9738;BME280;4908;47.446;13.900;2024-03-23T07:30:14;92111.38;;;6.78;100.00
9738;BME280;4908;47.446;13.900;2024-03-23T07:32:44;92112.97;;;6.93;100.00
9738;BME280;4908;47.446;13.900;2024-03-23T07:35:11;92109.91;;;6.91;100.00
9738;BME280;4908;47.446;13.900;2024-03-23T07:37:37;92110.69;;;6.98;100.00
9738;BME280;4908;47.446;13.900;2024-03-23T07:40:05;92111.53;;;7.20;100.00
9738;BME280;4908;47.446;13.900;2024-03-23T07:42:32;92096.38;;;7.42;100.00
9738;BME280;4908;47.446;13.900;2024-03-23T07:44:59;92093.34;;;7.50;100.00
9738;BME280;4908;47.446;13.900;2024-03-23T07:47:25;92098.69;;;7.57;100.00
9738;BME280;4908;47.446;13.900;2024-03-23T07:49:53;92085.00;;;7.62;100.00
9738;BME280;4908;47.446;13.900;2024-03-23T07:52:19;92085.03;;;7.69;100.00
9738;BME280;4908;47.446;13.900;2024-03-23T07:54:47;92083.47;;;7.72;100.00
9738;BME280;4908;47.446;13.900;2024-03-23T07:57:12;92075.09;;;7.59;100.00
9738;BME280;4908;47.446;13.900;2024-03-23T07:59:39;92075.09;;;7.66;100.00
9738;BME280;4908;47.446;13.900;2024-03-23T08:02:05;92064.81;;;7.75;100.00
9738;BME280;4908;47.446;13.900;2024-03-23T08:04:32;92067.13;;;7.80;100.00
9738;BME280;4908;47.446;13.900;2024-03-23T08:07:00;92059.13;;;7.87;100.00
9738;BME280;4908;47.446;13.900;2024-03-23T08:09:27;92063.69;;;8.04;100.00
9738;BME280;4908;47.446;13.900;2024-03-23T08:11:53;92051.50;;;8.21;100.00
9738;BME280;4908;47.446;13.900;2024-03-23T08:14:20;92053.75;;;8.23;100.00
9738;BME280;4908;47.446;13.900;2024-03-23T08:16:46;92053.78;;;8.37;100.00
9738;BME280;4908;47.446;13.900;2024-03-23T08:19:14;92049.13;;;8.62;100.00
9738;BME280;4908;47.446;13.900;2024-03-23T08:21:40;92033.50;;;8.67;100.00
9738;BME280;4908;47.446;13.900;2024-03-23T08:24:09;92034.63;;;8.70;100.00
9738;BME280;4908;47.446;13.900;2024-03-23T08:26:35;92026.97;;;8.79;100.00
9738;BME280;4908;47.446;13.900;2024-03-23T08:29:03;92023.13;;;8.87;100.00
9738;BME280;4908;47.446;13.900;2024-03-23T08:31:29;92014.25;;;9.04;100.00
9738;BME280;4908;47.446;13.900;2024-03-23T08:33:56;92006.53;;;9.24;100.00
9738;BME280;4908;47.446;13.900;2024-03-23T08:36:22;91997.78;;;9.20;100.00
9738;BME280;4908;47.446;13.900;2024-03-23T08:38:49;91993.91;;;9.28;100.00
9738;BME280;4908;47.446;13.900;2024-03-23T08:41:17;91985.44;;;9.40;100.00
9738;BME280;4908;47.446;13.900;2024-03-23T08:43:44;91973.97;;;9.39;100.00
9738;BME280;4908;47.446;13.900;2024-03-23T08:46:11;91977.75;;;9.45;100.00
9738;BME280;4908;47.446;13.900;2024-03-23T08:48:39;91980.63;;;9.68;100.00
9738;BME280;4908;47.446;13.900;2024-03-23T08:51:06;91979.13;;;9.64;100.00
9738;BME280;4908;47.446;13.900;2024-03-23T08:53:34;91966.84;;;9.73;100.00
9738;BME280;4908;47.446;13.900;2024-03-23T08:56:00;91969.47;;;9.80;100.00
9738;BME280;4908;47.446;13.900;2024-03-23T08:58:30;91966.16;;;10.07;100.00
9738;BME280;4908;47.446;13.900;2024-03-23T09:01:03;91948.50;;;10.16;100.00
9738;BME280;4908;47.446;13.900;2024-03-23T09:03:30;91948.81;;;10.25;100.00
9738;BME280;4908;47.446;13.900;2024-03-23T09:05:56;91942.66;;;10.28;100.00
9738;BME280;4908;47.446;13.900;2024-03-23T09:08:24;91934.78;;;10.48;100.00
9738;BME280;4908;47.446;13.900;2024-03-23T09:10:50;91936.06;;;10.70;100.00
9738;BME280;4908;47.446;13.900;2024-03-23T09:13:17;91930.06;;;10.59;100.00
9738;BME280;4908;47.446;13.900;2024-03-23T09:15:48;91925.94;;;10.54;100.00
9738;BME280;4908;47.446;13.900;2024-03-23T09:18:15;91920.75;;;10.70;100.00
9738;BME280;4908;47.446;13.900;2024-03-23T09:20:41;91924.34;;;10.87;100.00
9738;BME280;4908;47.446;13.900;2024-03-23T09:23:08;91926.50;;;10.99;100.00
9738;BME280;4908;47.446;13.900;2024-03-23T09:25:36;91917.16;;;11.11;100.00
9738;BME280;4908;47.446;13.900;2024-03-23T09:28:04;91905.91;;;11.19;100.00
9738;BME280;4908;47.446;13.900;2024-03-23T09:30:32;91898.13;;;11.28;100.00
9738;BME280;4908;47.446;13.900;2024-03-23T09:33:01;91889.63;;;11.56;100.00
9738;BME280;4908;47.446;13.900;2024-03-23T09:35:27;91890.19;;;11.71;100.00
9738;BME280;4908;47.446;13.900;2024-03-23T09:37:54;91883.22;;;11.73;100.00
9738;BME280;4908;47.446;13.900;2024-03-23T09:40:20;91869.94;;;11.90;100.00
9738;BME280;4908;47.446;13.900;2024-03-23T09:42:50;91870.38;;;12.08;100.00
9738;BME280;4908;47.446;13.900;2024-03-23T09:45:19;91859.72;;;12.24;100.00
9738;BME280;4908;47.446;13.900;2024-03-23T09:47:47;91848.22;;;12.43;94.54
9738;BME280;4908;47.446;13.900;2024-03-23T09:50:14;91852.13;;;12.38;95.53
9738;BME280;4908;47.446;13.900;2024-03-23T09:52:41;91838.16;;;12.47;86.71
9738;BME280;4908;47.446;13.900;2024-03-23T09:55:08;91828.03;;;12.54;74.53
9738;BME280;4908;47.446;13.900;2024-03-23T09:57:35;91827.03;;;12.65;68.82
9738;BME280;4908;47.446;13.900;2024-03-23T10:00:01;91816.75;;;12.43;64.23
9738;BME280;4908;47.446;13.900;2024-03-23T10:02:29;91815.69;;;12.57;68.42
9738;BME280;4908;47.446;13.900;2024-03-23T10:04:55;91812.09;;;12.63;56.93
9738;BME280;4908;47.446;13.900;2024-03-23T10:07:25;91801.47;;;12.92;61.32
9738;BME280;4908;47.446;13.900;2024-03-23T10:09:51;91795.66;;;13.13;61.74
9738;BME280;4908;47.446;13.900;2024-03-23T10:12:19;91788.06;;;13.08;60.87
9738;BME280;4908;47.446;13.900;2024-03-23T10:14:45;91779.69;;;13.22;59.25
9738;BME280;4908;47.446;13.900;2024-03-23T10:17:15;91772.34;;;13.39;61.06
9738;BME280;4908;47.446;13.900;2024-03-23T10:19:43;91766.41;;;13.60;59.08
9738;BME280;4908;47.446;13.900;2024-03-23T10:22:15;91764.34;;;13.80;65.37
9738;BME280;4908;47.446;13.900;2024-03-23T10:24:42;91755.69;;;13.89;76.40
9738;BME280;4908;47.446;13.900;2024-03-23T10:27:09;91753.50;;;14.25;69.76
9738;BME280;4908;47.446;13.900;2024-03-23T10:29:35;91741.56;;;14.26;68.50
9738;BME280;4908;47.446;13.900;2024-03-23T10:32:08;91735.66;;;14.31;65.47
9738;BME280;4908;47.446;13.900;2024-03-23T10:34:35;91732.66;;;14.42;67.29
9738;BME280;4908;47.446;13.900;2024-03-23T10:37:03;91730.84;;;14.51;70.27
9738;BME280;4908;47.446;13.900;2024-03-23T10:39:31;91731.03;;;14.44;72.70
9738;BME280;4908;47.446;13.900;2024-03-23T10:42:02;91729.34;;;14.63;70.22
9738;BME280;4908;47.446;13.900;2024-03-23T10:44:29;91723.50;;;14.77;69.71
9738;BME280;4908;47.446;13.900;2024-03-23T10:46:57;91728.25;;;14.85;69.64
9738;BME280;4908;47.446;13.900;2024-03-23T10:49:26;91733.75;;;14.82;66.98
9738;BME280;4908;47.446;13.900;2024-03-23T10:51:56;91724.22;;;15.02;64.88
9738;BME280;4908;47.446;13.900;2024-03-23T10:54:24;91717.34;;;15.01;61.19
9738;BME280;4908;47.446;13.900;2024-03-23T10:56:53;91715.28;;;15.05;63.03
9738;BME280;4908;47.446;13.900;2024-03-23T10:59:22;91711.91;;;15.61;57.08
9738;BME280;4908;47.446;13.900;2024-03-23T11:01:56;91706.91;;;15.72;54.05
9738;BME280;4908;47.446;13.900;2024-03-23T11:04:32;91698.38;;;15.95;63.16
9738;BME280;4908;47.446;13.900;2024-03-23T11:07:00;91694.72;;;16.10;57.04
9738;BME280;4908;47.446;13.900;2024-03-23T11:09:44;91695.38;;;16.45;55.39
9738;BME280;4908;47.446;13.900;2024-03-23T11:12:25;91679.00;;;16.79;52.83
9738;BME280;4908;47.446;13.900;2024-03-23T11:14:53;91680.13;;;17.00;51.73
9738;BME280;4908;47.446;13.900;2024-03-23T11:17:21;91672.47;;;17.17;50.01
9738;BME280;4908;47.446;13.900;2024-03-23T11:19:53;91675.13;;;17.56;51.58
9738;BME280;4908;47.446;13.900;2024-03-23T11:22:41;91664.09;;;17.78;53.25
9738;BME280;4908;47.446;13.900;2024-03-23T11:25:14;91669.34;;;18.00;50.99
9738;BME280;4908;47.446;13.900;2024-03-23T11:27:42;91659.28;;;18.00;46.50
9738;BME280;4908;47.446;13.900;2024-03-23T11:30:17;91644.69;;;17.98;46.11
9738;BME280;4908;47.446;13.900;2024-03-23T11:32:45;91635.81;;;17.88;48.12
9738;BME280;4908;47.446;13.900;2024-03-23T11:35:24;91639.81;;;18.20;46.65
9738;BME280;4908;47.446;13.900;2024-03-23T11:38:04;91645.66;;;18.45;45.78
9738;BME280;4908;47.446;13.900;2024-03-23T11:40:31;91643.44;;;18.67;43.99
9738;BME280;4908;47.446;13.900;2024-03-23T11:42:59;91649.84;;;18.55;41.67
9738;BME280;4908;47.446;13.900;2024-03-23T11:45:27;91647.91;;;18.79;40.75
9738;BME280;4908;47.446;13.900;2024-03-23T11:48:05;91647.91;;;18.79;41.95
9738;BME280;4908;47.446;13.900;2024-03-23T11:50:32;91636.16;;;17.63;44.37
9738;BME280;4908;47.446;13.900;2024-03-23T11:53:17;91663.59;;;17.16;47.56
9738;BME280;4908;47.446;13.900;2024-03-23T11:55:48;91656.97;;;16.50;47.36
9738;BME280;4908;47.446;13.900;2024-03-23T11:58:15;91660.19;;;15.84;51.86
9738;BME280;4908;47.446;13.900;2024-03-23T12:00:49;91671.13;;;15.80;53.67
9738;BME280;4908;47.446;13.900;2024-03-23T12:03:16;91680.41;;;15.58;57.39
9738;BME280;4908;47.446;13.900;2024-03-23T12:05:48;91680.31;;;15.14;58.66
9738;BME280;4908;47.446;13.900;2024-03-23T12:08:16;91670.09;;;14.97;61.52
9738;BME280;4908;47.446;13.900;2024-03-23T12:10:46;91678.03;;;14.66;59.27
9738;BME280;4908;47.446;13.900;2024-03-23T12:13:15;91679.22;;;14.53;64.48
9738;BME280;4908;47.446;13.900;2024-03-23T12:15:45;91679.50;;;14.17;66.18
9738;BME280;4908;47.446;13.900;2024-03-23T12:18:11;91692.50;;;13.65;68.61
9738;BME280;4908;47.446;13.900;2024-03-23T12:20:39;91696.66;;;13.24;76.96
9738;BME280;4908;47.446;13.900;2024-03-23T12:23:06;91717.19;;;13.18;79.72
9738;BME280;4908;47.446;13.900;2024-03-23T12:25:34;91732.47;;;13.05;85.40
9738;BME280;4908;47.446;13.900;2024-03-23T12:28:00;91716.69;;;13.07;80.97
9738;BME280;4908;47.446;13.900;2024-03-23T12:30:28;91706.06;;;13.00;80.11
9738;BME280;4908;47.446;13.900;2024-03-23T12:32:55;91703.38;;;13.00;79.99
9738;BME280;4908;47.446;13.900;2024-03-23T12:35:22;91755.28;;;13.29;74.83
9738;BME280;4908;47.446;13.900;2024-03-23T12:37:48;91710.25;;;13.33;79.53
9738;BME280;4908;47.446;13.900;2024-03-23T12:40:15;91756.72;;;13.18;78.32
9738;BME280;4908;47.446;13.900;2024-03-23T12:42:41;91783.03;;;13.26;75.80
9738;BME280;4908;47.446;13.900;2024-03-23T12:45:08;91759.97;;;12.77;77.77
9738;BME280;4908;47.446;13.900;2024-03-23T12:47:34;91765.84;;;12.88;76.07
9738;BME280;4908;47.446;13.900;2024-03-23T12:50:03;91795.88;;;12.51;78.11
9738;BME280;4908;47.446;13.900;2024-03-23T12:52:29;91772.66;;;12.25;76.33
9738;BME280;4908;47.446;13.900;2024-03-23T12:54:56;91785.47;;;11.78;84.19
9738;BME280;4908;47.446;13.900;2024-03-23T12:57:23;91794.63;;;11.57;83.95
9738;BME280;4908;47.446;13.900;2024-03-23T12:59:51;91808.44;;;11.56;83.39
9738;BME280;4908;47.446;13.900;2024-03-23T13:02:19;91823.31;;;11.37;82.65
9738;BME280;4908;47.446;13.900;2024-03-23T13:04:48;91831.28;;;11.18;83.08
9738;BME280;4908;47.446;13.900;2024-03-23T13:07:17;91841.44;;;10.80;82.77
9738;BME280;4908;47.446;13.900;2024-03-23T13:09:44;91848.00;;;10.49;84.05
9738;BME280;4908;47.446;13.900;2024-03-23T13:12:10;91854.66;;;10.34;84.80
9738;BME280;4908;47.446;13.900;2024-03-23T13:14:38;91852.41;;;10.32;80.86
9738;BME280;4908;47.446;13.900;2024-03-23T13:17:05;91864.88;;;10.09;84.78
9738;BME280;4908;47.446;13.900;2024-03-23T13:19:33;91872.19;;;10.05;86.99
9738;BME280;4908;47.446;13.900;2024-03-23T13:21:59;91865.56;;;9.82;86.27
9738;BME280;4908;47.446;13.900;2024-03-23T13:24:28;91874.44;;;9.72;87.49
9738;BME280;4908;47.446;13.900;2024-03-23T13:26:55;91878.81;;;9.52;95.63
9738;BME280;4908;47.446;13.900;2024-03-23T13:29:23;91896.50;;;9.39;98.54
9738;BME280;4908;47.446;13.900;2024-03-23T13:31:50;91899.59;;;9.31;100.00
9738;BME280;4908;47.446;13.900;2024-03-23T13:34:18;91920.53;;;9.39;100.00
9738;BME280;4908;47.446;13.900;2024-03-23T13:36:44;91907.28;;;8.70;100.00
9738;BME280;4908;47.446;13.900;2024-03-23T13:39:12;91922.53;;;8.70;100.00
9738;BME280;4908;47.446;13.900;2024-03-23T13:41:41;91904.47;;;8.08;100.00
9738;BME280;4908;47.446;13.900;2024-03-23T13:44:09;91925.16;;;7.69;100.00
9738;BME280;4908;47.446;13.900;2024-03-23T13:46:36;91954.06;;;7.46;100.00
9738;BME280;4908;47.446;13.900;2024-03-23T13:49:04;91935.81;;;7.55;100.00
9738;BME280;4908;47.446;13.900;2024-03-23T13:51:30;91962.44;;;7.55;100.00
9738;BME280;4908;47.446;13.900;2024-03-23T13:53:57;91974.63;;;7.24;100.00
9738;BME280;4908;47.446;13.900;2024-03-23T13:56:26;92019.09;;;7.13;100.00
9738;BME280;4908;47.446;13.900;2024-03-23T13:58:55;91997.41;;;7.01;100.00
9738;BME280;4908;47.446;13.900;2024-03-23T14:01:22;92007.28;;;7.04;100.00
9738;BME280;4908;47.446;13.900;2024-03-23T14:03:49;92019.09;;;7.03;100.00
9738;BME280;4908;47.446;13.900;2024-03-23T14:06:15;92030.91;;;7.09;100.00